Time;durP1;ratioP1;P1;durP2;ratioP2;P2;SDS_P1;SDS_P2;PMS_P1;PMS_P2;Temp;Humidity;BMP_temperature;BMP_pressure;BME280_temperature;BME280_humidity;BME280_pressure;Samples;Min_cycle;Max_cycle;Signal;HPM_P1;HPM_P2
2023/12/03 00:01:52;;;;;;;5.45;4.90;;;;;;;1.02;100.00;99202.44;5084093;28;20399;-78
2023/12/03 00:04:18;;;;;;;6.38;5.30;;;;;;;1.11;100.00;99204.50;5083382;28;20077;-78
2023/12/03 00:06:44;;;;;;;7.10;5.50;;;;;;;1.16;100.00;99205.06;5085204;28;20458;-80
2023/12/03 00:09:10;;;;;;;7.35;6.18;;;;;;;1.12;100.00;99208.75;5083679;28;20035;-79
2023/12/03 00:11:36;;;;;;;9.23;6.55;;;;;;;1.09;100.00;99203.75;5081869;28;20086;-80
2023/12/03 00:14:01;;;;;;;7.15;6.00;;;;;;;0.97;100.00;99204.47;5089830;28;20040;-78
2023/12/03 00:16:27;;;;;;;7.03;6.32;;;;;;;0.99;100.00;99205.25;5068641;28;20029;-80
2023/12/03 00:18:52;;;;;;;7.68;6.13;;;;;;;1.07;100.00;99207.34;5088034;28;20136;-78
2023/12/03 00:21:18;;;;;;;7.60;6.32;;;;;;;1.02;100.00;99214.59;5066942;28;20040;-79
2023/12/03 00:23:44;;;;;;;8.13;6.07;;;;;;;1.07;100.00;99223.78;5072265;28;20052;-80
2023/12/03 00:26:10;;;;;;;9.52;7.18;;;;;;;1.04;100.00;99229.19;5067370;28;20105;-80
2023/12/03 00:28:35;;;;;;;8.82;6.68;;;;;;;1.04;100.00;99226.59;5067083;28;20109;-80
2023/12/03 00:31:01;;;;;;;7.88;7.07;;;;;;;1.19;100.00;99230.00;5092109;28;20036;-80
2023/12/03 00:33:26;;;;;;;7.93;6.22;;;;;;;1.27;100.00;99230.41;5087873;28;20031;-81
2023/12/03 00:35:53;;;;;;;7.97;6.68;;;;;;;1.24;100.00;99235.75;5087112;28;20122;-79
2023/12/03 00:38:18;;;;;;;7.78;6.47;;;;;;;1.15;100.00;99237.16;5085798;28;20081;-79
2023/12/03 00:40:44;;;;;;;9.43;6.85;;;;;;;1.09;100.00;99253.13;5086663;28;20040;-79
2023/12/03 00:43:09;;;;;;;7.55;6.45;;;;;;;1.05;100.00;99261.19;5088827;28;20103;-79
2023/12/03 00:45:35;;;;;;;7.20;6.22;;;;;;;1.02;100.00;99261.38;5067385;28;20032;-80
2023/12/03 00:48:01;;;;;;;10.18;7.03;;;;;;;0.93;100.00;99261.91;5085479;28;20035;-80
2023/12/03 00:50:26;;;;;;;11.27;6.90;;;;;;;1.02;100.00;99267.41;5087816;28;20062;-80
2023/12/03 00:52:52;;;;;;;8.57;7.30;;;;;;;1.02;100.00;99277.78;5086266;28;20104;-80
2023/12/03 00:55:18;;;;;;;9.60;7.32;;;;;;;0.99;100.00;99272.78;5064574;28;20024;-78
2023/12/03 00:57:43;;;;;;;9.55;6.57;;;;;;;1.06;100.00;99276.69;5090167;28;20031;-80
2023/12/03 01:00:10;;;;;;;11.90;7.32;;;;;;;1.06;100.00;99279.28;5089953;28;20097;-81
2023/12/03 01:02:35;;;;;;;10.45;7.47;;;;;;;1.01;100.00;99283.91;5084432;28;20142;-81
2023/12/03 01:05:01;;;;;;;9.45;6.40;;;;;;;1.02;100.00;99292.53;5065957;28;20040;-81
2023/12/03 01:07:27;;;;;;;7.45;6.45;;;;;;;1.00;100.00;99287.44;5084809;28;20028;-80
2023/12/03 01:09:52;;;;;;;8.13;6.88;;;;;;;0.88;100.00;99295.97;5087431;28;20056;-81
2023/12/03 01:12:18;;;;;;;11.20;6.85;;;;;;;0.65;100.00;99299.03;5084980;28;20380;-80
2023/12/03 01:14:43;;;;;;;8.73;7.88;;;;;;;0.78;100.00;99300.00;5066769;28;20076;-80
2023/12/03 01:17:09;;;;;;;9.82;7.60;;;;;;;0.66;100.00;99300.69;5085602;28;20028;-81
2023/12/03 01:19:35;;;;;;;10.13;7.53;;;;;;;0.77;100.00;99308.69;5086530;28;20113;-81
2023/12/03 01:22:00;;;;;;;9.35;7.63;;;;;;;0.76;100.00;99313.09;5081096;28;20035;-81
2023/12/03 01:24:26;;;;;;;8.50;7.63;;;;;;;0.79;100.00;99312.91;5085355;28;20075;-80
2023/12/03 01:26:51;;;;;;;8.45;7.32;;;;;;;0.63;100.00;99326.84;5087971;28;20109;-82
2023/12/03 01:29:17;;;;;;;8.63;7.45;;;;;;;0.41;100.00;99330.59;5070769;28;20415;-81
2023/12/03 01:31:42;;;;;;;11.35;7.57;;;;;;;0.56;100.00;99341.09;5084632;28;20064;-80
2023/12/03 01:34:08;;;;;;;9.77;7.72;;;;;;;0.60;100.00;99338.22;5084088;28;20476;-82
2023/12/03 01:36:34;;;;;;;7.75;7.05;;;;;;;0.69;100.00;99337.72;5088130;28;20021;-80
2023/12/03 01:38:59;;;;;;;8.05;7.22;;;;;;;0.78;100.00;99337.19;5082588;28;20033;-78
2023/12/03 01:41:25;;;;;;;9.40;7.43;;;;;;;0.80;100.00;99350.09;5092198;28;20062;-78
2023/12/03 01:43:53;;;;;;;8.82;7.30;;;;;;;0.76;100.00;99359.00;5094673;28;20032;-79
2023/12/03 01:46:20;;;;;;;12.05;7.43;;;;;;;0.66;100.00;99358.66;5081710;28;20019;-79
2023/12/03 01:48:47;;;;;;;9.02;7.25;;;;;;;0.61;100.00;99354.63;5085002;28;20044;-79
2023/12/03 01:51:13;;;;;;;7.88;7.07;;;;;;;0.59;100.00;99369.50;5096171;28;20035;-80
2023/12/03 01:53:41;;;;;;;10.35;7.43;;;;;;;0.56;100.00;99367.88;5075711;28;20032;-80
2023/12/03 01:56:11;;;;;;;9.55;7.50;;;;;;;0.56;100.00;99374.84;5079620;28;20020;-80
2023/12/03 01:58:37;;;;;;;10.70;7.67;;;;;;;0.50;100.00;99372.56;5084978;28;20097;-81
2023/12/03 02:01:03;;;;;;;9.20;7.85;;;;;;;0.43;100.00;99381.59;5078317;28;20291;-80
2023/12/03 02:03:29;;;;;;;9.70;7.95;;;;;;;0.34;100.00;99394.19;5080520;28;20043;-81
2023/12/03 02:06:04;;;;;;;9.40;7.07;;;;;;;0.24;100.00;99402.53;5082158;28;20073;-78
2023/12/03 02:08:30;;;;;;;7.82;6.88;;;;;;;0.17;100.00;99399.44;5062003;28;20111;-79
2023/12/03 02:10:57;;;;;;;9.23;7.13;;;;;;;0.22;100.00;99415.59;5061346;28;20040;-78
2023/12/03 02:13:24;;;;;;;8.35;7.30;;;;;;;0.20;100.00;99409.66;5080842;28;20035;-79
2023/12/03 02:15:49;;;;;;;8.90;8.00;;;;;;;-0.14;100.00;99417.53;5081103;28;20043;-79
2023/12/03 02:18:15;;;;;;;12.20;8.35;;;;;;;-0.23;100.00;99417.97;5082521;28;20044;-78
2023/12/03 02:20:41;;;;;;;9.82;8.20;;;;;;;-0.28;100.00;99419.97;5079610;28;20484;-79
2023/12/03 02:23:06;;;;;;;10.93;8.75;;;;;;;-0.29;100.00;99407.91;5082807;28;20035;-80
2023/12/03 02:25:32;;;;;;;9.88;8.10;;;;;;;-0.25;100.00;99417.25;5083068;28;20071;-79
2023/12/03 02:27:57;;;;;;;9.77;8.40;;;;;;;-0.19;100.00;99424.72;5066837;28;20033;-79
2023/12/03 02:30:23;;;;;;;10.45;7.70;;;;;;;-0.30;100.00;99432.19;5079995;28;20028;-79
2023/12/03 02:32:48;;;;;;;10.43;7.72;;;;;;;-0.43;100.00;99432.81;5081241;28;20027;-79
2023/12/03 02:35:14;;;;;;;9.70;7.72;;;;;;;-0.48;100.00;99436.56;5077380;28;20052;-80
2023/12/03 02:37:40;;;;;;;9.15;7.88;;;;;;;-0.31;100.00;99446.91;5082421;28;20050;-79
2023/12/03 02:40:06;;;;;;;9.10;7.88;;;;;;;-0.55;100.00;99448.97;5083967;28;20059;-80
2023/12/03 02:42:32;;;;;;;9.80;8.07;;;;;;;-0.58;100.00;99443.94;5059643;28;20036;-80
2023/12/03 02:44:58;;;;;;;9.07;7.35;;;;;;;-0.56;100.00;99452.47;5083687;28;20085;-80
2023/12/03 02:47:23;;;;;;;9.73;7.20;;;;;;;-0.36;100.00;99448.06;5082511;28;20025;-79
2023/12/03 02:49:49;;;;;;;10.48;7.78;;;;;;;-0.55;100.00;99451.56;5080239;28;20107;-79
2023/12/03 02:52:14;;;;;;;9.55;8.02;;;;;;;-0.47;100.00;99454.59;5081192;28;20028;-80
2023/12/03 02:54:40;;;;;;;7.93;6.80;;;;;;;-0.22;100.00;99466.34;5081123;28;20068;-79
2023/12/03 02:57:05;;;;;;;9.63;8.40;;;;;;;-0.35;100.00;99465.31;5060352;28;20032;-78
2023/12/03 02:59:31;;;;;;;10.00;7.57;;;;;;;-0.20;100.00;99469.69;5079059;28;20036;-79
2023/12/03 03:01:57;;;;;;;10.35;7.97;;;;;;;-0.10;100.00;99470.91;5079602;28;20067;-80
2023/12/03 03:04:23;;;;;;;9.68;7.72;;;;;;;-0.46;100.00;99469.25;5060219;28;20025;-79
2023/12/03 03:06:48;;;;;;;9.93;7.70;;;;;;;-0.48;100.00;99475.44;5077768;28;20127;-80
2023/12/03 03:09:14;;;;;;;10.20;7.20;;;;;;;-0.29;100.00;99485.72;5079006;28;20098;-80
2023/12/03 03:11:39;;;;;;;11.90;7.85;;;;;;;-0.43;100.00;99481.22;5077772;28;20037;-80
2023/12/03 03:14:05;;;;;;;9.18;7.63;;;;;;;-0.31;100.00;99477.19;5078758;28;20036;-80
2023/12/03 03:16:32;;;;;;;11.15;8.02;;;;;;;-0.41;100.00;99488.00;5082022;28;20488;-79
2023/12/03 03:18:57;;;;;;;11.63;8.75;;;;;;;-0.57;100.00;99494.84;5056582;28;20028;-81
2023/12/03 03:21:23;;;;;;;13.00;8.35;;;;;;;-0.55;100.00;99495.63;5059232;28;20086;-81
2023/12/03 03:23:49;;;;;;;8.48;6.85;;;;;;;-0.60;100.00;99502.78;5077862;28;20051;-79
2023/12/03 03:26:14;;;;;;;8.57;7.47;;;;;;;-0.56;100.00;99512.09;5081563;28;20116;-79
2023/12/03 03:28:40;;;;;;;8.77;7.75;;;;;;;-0.83;100.00;99518.59;5076205;28;20040;-80
2023/12/03 03:31:06;;;;;;;11.10;7.53;;;;;;;-0.77;100.00;99515.72;5057151;28;20040;-79
2023/12/03 03:33:31;;;;;;;11.65;8.02;;;;;;;-0.77;100.00;99525.25;5062832;28;20115;-79
2023/12/03 03:35:57;;;;;;;8.90;7.95;;;;;;;-0.75;100.00;99529.41;5081429;28;20031;-79
2023/12/03 03:38:22;;;;;;;9.55;8.30;;;;;;;-0.71;100.00;99520.63;5081761;28;20031;-80
2023/12/03 03:40:48;;;;;;;9.70;8.32;;;;;;;-0.74;100.00;99531.09;5061834;28;20035;-81
2023/12/03 03:43:14;;;;;;;9.45;7.65;;;;;;;-0.89;100.00;99537.03;5081990;28;20040;-81
2023/12/03 03:45:39;;;;;;;10.65;7.28;;;;;;;-0.95;100.00;99548.50;5081971;28;20028;-80
2023/12/03 03:48:05;;;;;;;8.68;7.45;;;;;;;-0.94;100.00;99544.97;5075892;28;20584;-82
2023/12/03 03:50:31;;;;;;;9.07;7.30;;;;;;;-1.02;100.00;99546.25;5078477;28;20028;-82
2023/12/03 03:52:56;;;;;;;9.40;7.28;;;;;;;-0.91;100.00;99538.84;5078618;28;20055;-81
2023/12/03 03:55:23;;;;;;;10.00;8.00;;;;;;;-1.11;100.00;99549.25;5082723;28;20040;-81
2023/12/03 03:57:49;;;;;;;11.50;7.90;;;;;;;-0.93;100.00;99553.59;5077732;28;20523;-78
2023/12/03 04:00:15;;;;;;;8.20;6.85;;;;;;;-1.01;100.00;99566.09;5061065;28;20037;-79
2023/12/03 04:02:41;;;;;;;8.32;6.72;;;;;;;-0.93;100.00;99571.72;5058913;28;20036;-80
2023/12/03 04:05:09;;;;;;;8.55;5.97;;;;;;;-0.98;100.00;99581.47;5080019;28;20066;-79
2023/12/03 04:07:35;;;;;;;7.25;6.55;;;;;;;-1.20;100.00;99583.34;5078327;28;20507;-80
2023/12/03 04:10:00;;;;;;;8.20;6.25;;;;;;;-1.14;100.00;99583.06;5082416;28;20028;-80
2023/12/03 04:12:26;;;;;;;7.68;6.82;;;;;;;-1.13;100.00;99587.34;5080144;28;20129;-78
2023/12/03 04:14:51;;;;;;;8.75;7.28;;;;;;;-1.12;100.00;99591.63;5078975;28;20040;-79
2023/12/03 04:17:17;;;;;;;7.28;6.30;;;;;;;-1.04;100.00;99597.28;5082487;28;20020;-79
2023/12/03 04:19:42;;;;;;;7.95;6.55;;;;;;;-1.15;100.00;99596.94;5084136;28;20063;-79
2023/12/03 04:22:08;;;;;;;7.50;6.47;;;;;;;-1.22;100.00;99606.72;5082281;28;20047;-79
2023/12/03 04:24:34;;;;;;;7.35;6.20;;;;;;;-1.13;100.00;99610.66;5080597;28;20048;-79
2023/12/03 04:26:59;;;;;;;10.05;6.88;;;;;;;-1.07;100.00;99607.78;5084549;28;20028;-80
2023/12/03 04:29:25;;;;;;;7.38;6.25;;;;;;;-1.02;100.00;99613.59;5083279;28;20028;-79
2023/12/03 04:31:51;;;;;;;7.15;6.25;;;;;;;-0.90;100.00;99618.22;5084058;28;20437;-79
2023/12/03 04:34:17;;;;;;;8.27;6.60;;;;;;;-0.83;100.00;99624.81;5087558;28;20108;-80
2023/12/03 04:36:44;;;;;;;7.80;6.45;;;;;;;-0.78;100.00;99622.84;5082166;28;20403;-80
2023/12/03 04:39:12;;;;;;;6.72;6.07;;;;;;;-0.72;100.00;99626.91;5084680;28;20039;-81
2023/12/03 04:41:38;;;;;;;6.95;5.93;;;;;;;-0.67;100.00;99630.97;5066032;28;20040;-80
2023/12/03 04:44:04;;;;;;;9.70;6.43;;;;;;;-0.64;100.00;99643.78;5086025;28;20083;-80
2023/12/03 04:46:30;;;;;;;6.63;6.03;;;;;;;-0.69;100.00;99645.75;5083096;28;20060;-80
2023/12/03 04:48:56;;;;;;;7.18;6.57;;;;;;;-0.94;100.00;99643.41;5064290;28;20044;-81
2023/12/03 04:51:22;;;;;;;6.50;5.90;;;;;;;-1.08;100.00;99656.16;5063321;28;20032;-80
2023/12/03 04:53:47;;;;;;;6.70;5.95;;;;;;;-1.00;100.00;99653.25;5063125;28;20051;-79
2023/12/03 04:56:13;;;;;;;7.22;6.13;;;;;;;-1.02;100.00;99661.06;5087267;28;20032;-80
2023/12/03 04:58:38;;;;;;;7.43;6.55;;;;;;;-1.03;100.00;99668.91;5088244;28;20056;-80
2023/12/03 05:01:04;;;;;;;7.60;6.53;;;;;;;-1.17;100.00;99666.06;5083609;28;20036;-79
2023/12/03 05:03:30;;;;;;;9.00;6.85;;;;;;;-1.25;100.00;99675.03;5066464;28;20081;-78
2023/12/03 05:05:56;;;;;;;8.35;6.50;;;;;;;-1.27;100.00;99682.00;5081345;28;20095;-80
2023/12/03 05:08:22;;;;;;;9.20;6.47;;;;;;;-1.38;100.00;99686.81;5053309;28;20028;-79
2023/12/03 05:10:47;;;;;;;7.50;6.72;;;;;;;-1.60;100.00;99693.78;5090060;28;20024;-80
2023/12/03 05:13:15;;;;;;;8.25;6.78;;;;;;;-1.57;100.00;99691.06;5084652;28;20047;-80
2023/12/03 05:15:43;;;;;;;7.32;6.63;;;;;;;-1.52;100.00;99696.88;5090787;28;20032;-79
2023/12/03 05:18:09;;;;;;;8.88;6.50;;;;;;;-1.51;100.00;99700.31;5088595;28;20062;-79
2023/12/03 05:20:34;;;;;;;7.25;6.18;;;;;;;-1.53;100.00;99705.53;5085887;28;20040;-78
2023/12/03 05:23:00;;;;;;;7.10;6.40;;;;;;;-1.49;100.00;99704.53;5087169;28;20036;-79
2023/12/03 05:25:26;;;;;;;6.10;5.50;;;;;;;-1.55;100.00;99719.47;5086230;28;20040;-79
2023/12/03 05:27:51;;;;;;;6.68;5.90;;;;;;;-1.50;100.00;99726.13;5085726;28;20081;-79
2023/12/03 05:30:18;;;;;;;6.85;5.78;;;;;;;-1.48;100.00;99737.28;5074103;28;20023;-81
2023/12/03 05:32:43;;;;;;;6.80;6.18;;;;;;;-1.52;100.00;99740.88;5063672;28;20037;-80
2023/12/03 05:35:10;;;;;;;8.23;6.75;;;;;;;-1.60;100.00;99735.19;5091026;28;20030;-79
2023/12/03 05:37:36;;;;;;;8.60;6.30;;;;;;;-1.79;100.00;99750.59;5095544;28;20404;-78
2023/12/03 05:40:04;;;;;;;7.15;6.43;;;;;;;-2.10;100.00;99750.94;5090791;28;20032;-79
2023/12/03 05:42:30;;;;;;;7.18;6.43;;;;;;;-2.09;100.00;99757.81;5084487;28;20063;-79
2023/12/03 05:44:55;;;;;;;7.45;6.70;;;;;;;-1.97;100.00;99760.81;5082765;28;20036;-79
2023/12/03 05:47:21;;;;;;;8.32;7.13;;;;;;;-1.99;100.00;99758.28;5090975;28;20024;-78
2023/12/03 05:49:47;;;;;;;8.27;6.75;;;;;;;-2.04;100.00;99764.53;5082960;28;20029;-79
2023/12/03 05:52:14;;;;;;;7.32;6.60;;;;;;;-2.17;100.00;99765.00;5065502;28;20048;-79
2023/12/03 05:54:42;;;;;;;7.80;5.95;;;;;;;-2.06;100.00;99773.19;5090802;28;20384;-78
2023/12/03 05:57:07;;;;;;;11.93;6.05;;;;;;;-2.04;100.00;99785.22;5087541;28;20080;-78
2023/12/03 05:59:33;;;;;;;6.80;6.10;;;;;;;-2.31;100.00;99782.81;5093745;28;20044;-79
2023/12/03 06:01:59;;;;;;;7.82;5.93;;;;;;;-2.17;100.00;99790.88;5090253;28;20040;-79
2023/12/03 06:04:24;;;;;;;6.85;6.18;;;;;;;-2.19;100.00;99797.84;5084424;28;20060;-79
2023/12/03 06:06:50;;;;;;;6.35;5.75;;;;;;;-2.11;100.00;99800.13;5083965;28;20028;-81
2023/12/03 06:09:16;;;;;;;7.03;5.72;;;;;;;-1.97;100.00;99803.03;5057235;28;20094;-81
2023/12/03 06:11:41;;;;;;;5.90;5.30;;;;;;;-2.01;100.00;99816.16;5085195;28;20024;-80
2023/12/03 06:14:07;;;;;;;6.38;5.72;;;;;;;-2.03;100.00;99810.19;5091259;28;20399;-79
2023/12/03 06:16:32;;;;;;;6.10;5.50;;;;;;;-1.94;100.00;99807.28;5063648;28;20064;-81
2023/12/03 06:18:58;;;;;;;5.95;5.35;;;;;;;-2.29;100.00;99811.16;5088897;28;20021;-78
2023/12/03 06:21:24;;;;;;;6.63;6.03;;;;;;;-2.34;100.00;99802.72;5083687;28;20029;-79
2023/12/03 06:23:49;;;;;;;6.22;5.63;;;;;;;-2.18;100.00;99819.38;5052871;28;20032;-78
2023/12/03 06:26:15;;;;;;;6.47;5.90;;;;;;;-2.04;100.00;99831.78;5059263;28;20029;-79
2023/12/03 06:28:41;;;;;;;6.47;5.57;;;;;;;-2.10;100.00;99838.88;5065412;28;20032;-79
2023/12/03 06:31:06;;;;;;;6.45;5.85;;;;;;;-2.08;100.00;99842.25;5060646;28;20033;-78
2023/12/03 06:33:33;;;;;;;7.35;5.40;;;;;;;-2.09;100.00;99839.72;5052077;28;20119;-80
2023/12/03 06:35:58;;;;;;;6.80;6.10;;;;;;;-2.06;100.00;99845.59;5080994;28;20120;-79
2023/12/03 06:38:24;;;;;;;6.25;5.65;;;;;;;-1.96;100.00;99840.94;5082383;28;20039;-80
2023/12/03 06:40:50;;;;;;;6.47;5.88;;;;;;;-1.85;100.00;99851.72;5080794;28;20028;-78
2023/12/03 06:43:15;;;;;;;7.80;5.88;;;;;;;-1.95;100.00;99857.31;5079992;28;20043;-80
2023/12/03 06:45:41;;;;;;;7.22;5.88;;;;;;;-1.82;100.00;99863.69;5080163;28;20046;-79
2023/12/03 06:48:07;;;;;;;8.43;6.13;;;;;;;-1.85;100.00;99863.81;5077894;28;20028;-79
2023/12/03 06:50:33;;;;;;;7.38;5.70;;;;;;;-1.75;100.00;99870.31;5078543;28;20121;-80
2023/12/03 06:53:00;;;;;;;6.72;6.13;;;;;;;-1.79;100.00;99874.78;5083448;28;20165;-80
2023/12/03 06:55:28;;;;;;;7.03;6.38;;;;;;;-1.81;100.00;99879.16;5058610;28;20111;-80
2023/12/03 06:57:53;;;;;;;6.20;5.65;;;;;;;-1.93;100.00;99878.75;5081403;28;20680;-80
2023/12/03 07:00:19;;;;;;;7.47;6.45;;;;;;;-1.92;100.00;99880.44;5081484;28;20033;-80
2023/12/03 07:02:46;;;;;;;7.05;6.38;;;;;;;-1.91;100.00;99889.91;5090663;22;20063;-75
2023/12/03 07:05:12;;;;;;;6.78;6.13;;;;;;;-1.92;100.00;99893.38;5025541;28;20037;-73
2023/12/03 07:07:37;;;;;;;6.65;5.75;;;;;;;-2.16;100.00;99901.13;5066082;28;20033;-74
2023/12/03 07:10:03;;;;;;;6.32;5.70;;;;;;;-2.29;100.00;99914.53;5063121;28;20097;-77
2023/12/03 07:12:30;;;;;;;5.93;5.32;;;;;;;-2.07;100.00;99921.50;5058165;28;20107;-75
2023/12/03 07:14:56;;;;;;;8.77;6.65;;;;;;;-1.87;100.00;99928.53;5060068;28;20099;-74
2023/12/03 07:17:21;;;;;;;5.97;5.47;;;;;;;-1.71;100.00;99918.47;5059973;28;20033;-75
2023/12/03 07:19:47;;;;;;;7.55;6.22;;;;;;;-1.74;100.00;99928.91;5059222;28;20397;-74
2023/12/03 07:22:12;;;;;;;6.65;5.95;;;;;;;-1.53;100.00;99928.09;5064425;28;20103;-74
2023/12/03 07:24:39;;;;;;;6.28;5.70;;;;;;;-1.71;100.00;99939.97;5064654;28;20440;-73
2023/12/03 07:27:05;;;;;;;6.85;6.05;;;;;;;-1.67;100.00;99938.16;5047567;28;20036;-74
2023/12/03 07:29:30;;;;;;;7.35;6.25;;;;;;;-1.65;100.00;99944.94;5062305;28;20031;-74
2023/12/03 07:31:56;;;;;;;7.38;5.85;;;;;;;-1.37;100.00;99949.94;5065664;28;20486;-73
2023/12/03 07:34:21;;;;;;;6.82;6.15;;;;;;;-1.16;100.00;99952.59;5065228;28;20126;-73
2023/12/03 07:36:47;;;;;;;7.07;6.18;;;;;;;-1.28;100.00;99953.91;5061055;28;20047;-76
2023/12/03 07:39:13;;;;;;;7.15;6.10;;;;;;;-1.23;100.00;99963.19;5065798;28;20074;-76
2023/12/03 07:41:38;;;;;;;7.45;6.75;;;;;;;-1.23;100.00;99960.59;5045753;28;20036;-74
2023/12/03 07:44:04;;;;;;;9.23;6.20;;;;;;;-1.01;100.00;99967.53;5061201;28;20069;-75
2023/12/03 07:46:31;;;;;;;7.43;6.63;;;;;;;-0.95;100.00;99977.66;5059742;28;20112;-76
2023/12/03 07:48:57;;;;;;;7.00;6.15;;;;;;;-0.98;100.00;99980.34;5071340;28;20082;-74
2023/12/03 07:51:22;;;;;;;6.40;5.80;;;;;;;-1.06;100.00;99979.84;5065220;28;20033;-76
2023/12/03 07:53:47;;;;;;;7.50;6.35;;;;;;;-1.02;100.00;99996.94;5070119;28;20111;-75
2023/12/03 07:56:13;;;;;;;8.00;6.78;;;;;;;-0.96;100.00;100001.88;5067647;28;20126;-75
2023/12/03 07:58:38;;;;;;;7.57;6.80;;;;;;;-0.72;100.00;100006.09;5071335;28;20041;-73
2023/12/03 08:01:05;;;;;;;7.72;6.80;;;;;;;-0.60;100.00;100008.19;5064754;28;20044;-74
2023/12/03 08:03:30;;;;;;;11.18;7.35;;;;;;;-0.63;100.00;100013.47;5066540;28;20048;-76
2023/12/03 08:05:56;;;;;;;18.73;8.00;;;;;;;-0.75;100.00;100021.75;5067856;28;20075;-75
2023/12/03 08:08:21;;;;;;;10.63;7.43;;;;;;;-0.57;100.00;100021.00;5071219;28;20025;-77
2023/12/03 08:10:47;;;;;;;7.78;6.97;;;;;;;-0.78;100.00;100037.44;5064238;28;20029;-76
2023/12/03 08:13:13;;;;;;;8.00;6.88;;;;;;;-0.73;100.00;100035.50;5069079;28;20025;-80
2023/12/03 08:15:38;;;;;;;7.18;6.53;;;;;;;-0.68;100.00;100038.75;5073325;28;20476;-77
2023/12/03 08:18:05;;;;;;;8.57;7.18;;;;;;;-0.68;100.00;100041.34;5050009;28;20044;-76
2023/12/03 08:20:31;;;;;;;7.97;7.03;;;;;;;-0.45;100.00;100041.25;5070620;28;20104;-76
2023/12/03 08:22:57;;;;;;;7.85;7.00;;;;;;;-0.68;100.00;100048.25;5070347;28;20111;-77
2023/12/03 08:25:23;;;;;;;8.00;6.43;;;;;;;-0.36;100.00;100054.78;5069859;28;20554;-77
2023/12/03 08:27:48;;;;;;;7.32;6.68;;;;;;;-0.20;100.00;100061.84;5067128;28;20112;-75
2023/12/03 08:30:15;;;;;;;7.75;6.95;;;;;;;-0.14;100.00;100055.56;5065616;28;20033;-75
2023/12/03 08:32:40;;;;;;;8.35;7.05;;;;;;;0.02;100.00;100060.94;5072046;28;20118;-75
2023/12/03 08:35:06;;;;;;;7.10;6.40;;;;;;;-0.08;100.00;100060.50;5063026;28;20052;-76
2023/12/03 08:37:32;;;;;;;7.63;6.60;;;;;;;-0.08;100.00;100066.53;5071497;28;20021;-76
2023/12/03 08:39:59;;;;;;;7.88;7.07;;;;;;;0.14;100.00;100066.47;5045045;28;20063;-75
2023/12/03 08:42:24;;;;;;;8.35;6.35;;;;;;;0.15;100.00;100078.53;5068496;28;20035;-75
2023/12/03 08:44:50;;;;;;;7.60;6.22;;;;;;;0.21;100.00;100077.44;5068703;28;20032;-75
2023/12/03 08:47:15;;;;;;;7.68;6.38;;;;;;;0.35;100.00;100081.13;5046478;28;20077;-76
2023/12/03 08:49:41;;;;;;;7.95;7.15;;;;;;;0.46;100.00;100077.25;5065013;28;20120;-75
2023/12/03 08:52:08;;;;;;;7.30;6.55;;;;;;;0.50;100.00;100083.97;5053755;28;20072;-75
2023/12/03 08:54:34;;;;;;;7.95;6.65;;;;;;;0.50;100.00;100074.44;5069453;28;20066;-75
2023/12/03 08:57:00;;;;;;;7.20;6.50;;;;;;;0.69;100.00;100071.88;5064853;28;20029;-76
2023/12/03 08:59:26;;;;;;;8.20;6.60;;;;;;;0.81;100.00;100084.31;5038996;28;20027;-76
2023/12/03 09:01:51;;;;;;;7.40;6.28;;;;;;;1.01;100.00;100081.63;5066961;28;20043;-76
2023/12/03 09:04:18;;;;;;;6.97;6.28;;;;;;;1.19;100.00;100085.16;5065119;28;20058;-76
2023/12/03 09:06:46;;;;;;;11.02;6.40;;;;;;;1.34;100.00;100094.00;5066990;28;20033;-77
2023/12/03 09:09:12;;;;;;;7.72;6.38;;;;;;;1.47;100.00;100100.34;5069325;28;20433;-76
2023/12/03 09:11:42;;;;;;;7.68;6.63;;;;;;;1.55;100.00;100103.41;5067157;28;20073;-77
2023/12/03 09:14:08;;;;;;;8.10;7.15;;;;;;;1.62;100.00;100110.00;5062859;28;20033;-76
2023/12/03 09:16:33;;;;;;;10.30;7.20;;;;;;;1.67;100.00;100101.97;5068720;28;20543;-76
2023/12/03 09:18:59;;;;;;;8.50;6.88;;;;;;;1.68;100.00;100104.50;5066352;28;20075;-77
2023/12/03 09:21:24;;;;;;;7.18;6.47;;;;;;;1.72;100.00;100115.59;5066738;28;20078;-77
2023/12/03 09:23:50;;;;;;;7.47;6.20;;;;;;;1.80;100.00;100111.72;5063943;28;20039;-74
2023/12/03 09:26:16;;;;;;;9.57;6.90;;;;;;;1.96;100.00;100112.66;5063850;28;20044;-75
2023/12/03 09:28:41;;;;;;;8.02;6.47;;;;;;;2.01;100.00;100123.66;5056785;28;20056;-75
2023/12/03 09:31:07;;;;;;;8.45;6.60;;;;;;;2.17;100.00;100122.94;5060959;28;20032;-76
2023/12/03 09:33:33;;;;;;;7.28;6.57;;;;;;;2.29;100.00;100132.75;5058745;28;20037;-75
2023/12/03 09:35:58;;;;;;;8.77;6.57;;;;;;;2.36;100.00;100128.88;5064743;28;20541;-75
2023/12/03 09:38:24;;;;;;;7.47;6.53;;;;;;;2.36;100.00;100131.50;5055433;28;20029;-79
2023/12/03 09:40:55;;;;;;;7.57;6.88;;;;;;;2.43;100.00;100130.25;5043554;28;20033;-76
2023/12/03 09:43:20;;;;;;;7.90;6.88;;;;;;;2.38;100.00;100130.50;5069820;28;20310;-77
2023/12/03 09:45:46;;;;;;;9.10;6.95;;;;;;;2.41;100.00;100130.38;5063659;28;20043;-79
2023/12/03 09:48:14;;;;;;;7.25;6.20;;;;;;;2.50;100.00;100139.47;5064704;28;20120;-77
2023/12/03 09:50:42;;;;;;;6.80;6.10;;;;;;;2.55;100.00;100145.28;5064104;28;20473;-78
2023/12/03 09:53:11;;;;;;;8.15;6.63;;;;;;;2.69;100.00;100148.03;5051816;28;20037;-76
2023/12/03 09:55:42;;;;;;;8.45;6.82;;;;;;;2.78;100.00;100144.94;5063880;28;20029;-78
2023/12/03 09:58:11;;;;;;;;;;;;;;;2.83;100.00;100150.75;5058327;28;20037;-76
2023/12/03 10:00:37;;;;;;;9.50;6.60;;;;;;;2.92;100.00;100148.59;5069689;28;19917;-76
2023/12/03 10:03:04;;;;;;;10.93;6.65;;;;;;;3.02;100.00;100145.41;5058708;28;20055;-75
2023/12/03 10:05:30;;;;;;;8.07;6.55;;;;;;;3.12;100.00;100145.81;5061370;28;20521;-76
2023/12/03 10:07:57;;;;;;;10.65;7.25;;;;;;;3.21;100.00;100150.50;5057077;28;20075;-76
2023/12/03 10:10:28;;;;;;;8.75;6.07;;;;;;;3.32;100.00;100148.16;5052901;28;20703;-77
2023/12/03 10:12:55;;;;;;;9.45;6.22;;;;;;;3.42;100.00;100132.84;5055349;28;20060;-76
2023/12/03 10:15:21;;;;;;;7.85;6.65;;;;;;;3.55;100.00;100144.31;5055066;28;20120;-77
2023/12/03 10:17:46;;;;;;;9.13;6.75;;;;;;;3.64;100.00;100144.66;5042560;28;20116;-76
2023/12/03 10:20:17;;;;;;;8.20;7.35;;;;;;;3.74;100.00;100146.75;5058472;28;20024;-76
2023/12/03 10:22:43;;;;;;;10.75;7.43;;;;;;;3.79;100.00;100148.16;5054790;28;20068;-76
2023/12/03 10:25:09;;;;;;;10.18;7.53;;;;;;;3.87;100.00;100153.81;5054176;28;20112;-77
2023/12/03 10:27:35;;;;;;;8.95;7.10;;;;;;;3.90;100.00;100148.41;5058003;28;20024;-78
2023/12/03 10:30:01;;;;;;;11.90;7.93;;;;;;;4.00;100.00;100143.53;5057187;28;20085;-76
2023/12/03 10:32:27;;;;;;;10.45;7.65;;;;;;;4.06;100.00;100148.41;5030751;28;20041;-76
2023/12/03 10:34:54;;;;;;;8.60;7.32;;;;;;;4.10;100.00;100148.13;5058039;28;20033;-76
2023/12/03 10:37:19;;;;;;;8.73;7.75;;;;;;;4.14;100.00;100154.00;5035585;28;20106;-76
2023/12/03 10:39:46;;;;;;;9.05;7.07;;;;;;;4.19;100.00;100151.97;5057485;28;20029;-76
2023/12/03 10:42:12;;;;;;;10.82;7.32;;;;;;;4.26;100.00;100155.91;5054938;28;20120;-77
2023/12/03 10:44:40;;;;;;;8.43;7.28;;;;;;;4.28;100.00;100151.47;5062540;28;20520;-76
2023/12/03 10:47:07;;;;;;;7.05;6.10;;;;;;;4.35;100.00;100147.56;5051537;28;20108;-77
2023/12/03 10:49:33;;;;;;;7.25;6.30;;;;;;;4.41;100.00;100149.81;5058467;28;20069;-74
2023/12/03 10:51:59;;;;;;;8.43;6.82;;;;;;;4.46;100.00;100155.63;5058106;28;20081;-76
2023/12/03 10:54:25;;;;;;;9.57;5.53;;;;;;;4.51;100.00;100150.97;5056725;28;20453;-77
2023/12/03 10:56:55;;;;;;;11.70;6.25;;;;;;;4.59;100.00;100152.28;5020364;28;20054;-77
2023/12/03 10:59:29;;;;;;;6.22;5.22;;;;;;;4.59;100.00;100154.91;5057779;28;20068;-75
2023/12/03 11:01:57;;;;;;;7.03;5.38;;;;;;;4.64;100.00;100152.84;5055500;28;20048;-75
2023/12/03 11:04:51;;;;;;;7.45;5.47;;;;;;;4.69;100.00;100150.81;5060796;28;20150;-77
2023/12/03 11:07:22;;;;;;;6.65;5.68;;;;;;;4.74;100.00;100154.81;5061079;28;20033;-75
2023/12/03 11:09:49;;;;;;;7.07;5.68;;;;;;;4.78;100.00;100150.25;5068901;28;20071;-76
2023/12/03 11:12:17;;;;;;;6.13;5.53;;;;;;;4.87;100.00;100152.31;5066074;28;20151;-76
2023/12/03 11:14:43;;;;;;;8.63;6.38;;;;;;;4.93;100.00;100150.19;5068469;28;20503;-77
2023/12/03 11:17:17;;;;;;;8.75;5.68;;;;;;;5.02;100.00;100146.16;5065769;28;20020;-76
2023/12/03 11:19:48;;;;;;;6.15;5.25;;;;;;;5.10;100.00;100136.06;5057789;28;20456;-75